Terminal Aerodrome Forecast
Issued by NWS

Home | Current Version | Previous Version | Text Only | Print | Product List | Glossary Off
Versions: 1 2 3 4 5 6 7 8 9 10 11 12 13 14 15 16 17 18 19 20 21 22 23 24 25 26

000
FTUS43 KPAH 061120
TAFCGI
TAF
KCGI 061120Z 0612/0712 VRB03KT 1/4SM FZFG VV002
      TEMPO 0612/0616 4SM BR SCT002
     FM061600 20008KT P6SM SCT250
     FM070000 20003KT P6SM BKN250=

USA.gov is the U.S. government's official web portal to all federal, state and local government web resources and services.